Terminal Aerodrome Forecast
Issued by NWS Wilmington, NC

Current Version | Previous Version | Text Only | Print | Product List | Glossary On
Versions: 1 2 3 4 5 6 7 8 9 10 11 12 13 14 15
000
FTUS42 KILM 301100
TAFMYR
TAF
KMYR 301127Z 3012/3112 03006KT P6SM SCT100
     FM301700 12010KT P6SM SCT045
     FM310600 08005KT P6SM SCT100 SCT200=

USA.gov is the U.S. government's official web portal to all federal, state and local government web resources and services.